Schriever, Louisiana
Current Conditions -  °F | °C
As of 11:47 AM on Friday 28 Nov 2014 (Local Time) from KHUM Reporting Station
Clear Clear  
Wind Chill: 61°   Ceiling: Unl
Heat Index: 61°   Visibility: 7mi
Dew Point: 43°   Wind: 3mph
Humidity: 52%   Direction: 40°NE
Pressure: 30.37"   Gusts: NA
Location:  29.74°N, 90.81°W
Report Text: KHUM 281747Z 04003KT 7SM SKC 16/06 A3037 RMK RY12/30 CLOSED ATIS R VA/RY36 DV
Loading
Personal Weather Stations






























Interactive Weather Map New forecast layout! Learn more

10-Day Weather Forecast

Advertisements
Track Severe Weather on mobile